Time;durP1;ratioP1;P1;durP2;ratioP2;P2;SDS_P1;SDS_P2;PMS_P1;PMS_P2;Temp;Humidity;BMP_temperature;BMP_pressure;BME280_temperature;BME280_humidity;BME280_pressure;Samples;Min_cycle;Max_cycle;Signal;HPM_P1;HPM_P2
2021/12/18 00:00:36;;;;;;;0.70;0.60;;;4.10;99.90;;;;;;5033692;28;20612;-68
2021/12/18 00:03:02;;;;;;;2.03;1.07;;;4.00;99.90;;;;;;5035449;28;20446;-68
2021/12/18 00:05:28;;;;;;;0.60;0.50;;;4.00;99.90;;;;;;5024247;28;20534;-68
2021/12/18 00:07:53;;;;;;;0.70;0.70;;;4.00;99.90;;;;;;5016067;28;20498;-68
2021/12/18 00:10:22;;;;;;;3.07;1.27;;;3.90;99.90;;;;;;5015968;28;20542;-68
2021/12/18 00:12:49;;;;;;;2.30;2.20;;;3.90;99.90;;;;;;5015910;28;20210;-68
2021/12/18 00:15:19;;;;;;;0.70;0.50;;;4.00;99.90;;;;;;5015966;28;20395;-68
2021/12/18 00:17:45;;;;;;;3.27;3.07;;;4.00;99.90;;;;;;5017244;28;20431;-68
2021/12/18 00:20:13;;;;;;;0.70;0.50;;;4.00;99.90;;;;;;5023134;28;20526;-68
2021/12/18 00:22:39;;;;;;;0.70;0.50;;;4.10;99.90;;;;;;5032277;28;20636;-68
2021/12/18 00:25:04;;;;;;;2.40;1.07;;;4.20;99.90;;;;;;5034849;28;20418;-68
2021/12/18 00:27:30;;;;;;;0.70;0.50;;;4.30;99.90;;;;;;5022079;28;20180;-68
2021/12/18 00:29:55;;;;;;;1.40;1.30;;;4.40;99.90;;;;;;5014261;28;20233;-68
2021/12/18 00:32:21;;;;;;;1.90;1.80;;;4.50;99.90;;;;;;5021115;28;20342;-68
2021/12/18 00:34:46;;;;;;;1.83;0.90;;;4.50;99.90;;;;;;5032093;28;20214;-68
2021/12/18 00:37:12;;;;;;;1.03;0.87;;;4.50;99.90;;;;;;5050552;28;20262;-67
2021/12/18 00:39:44;;;;;;;2.80;1.90;;;4.60;99.90;;;;;;5035700;28;20281;-69
2021/12/18 00:44:54;;;;;;;0.70;0.60;;;4.80;99.90;;;;;;5034545;28;21048;-69
2021/12/18 00:47:19;;;;;;;7.43;4.00;;;4.80;99.90;;;;;;5029260;28;20415;-68
2021/12/18 00:49:45;;;;;;;3.13;2.63;;;4.90;99.90;;;;;;5034513;28;20175;-68
2021/12/18 00:52:12;;;;;;;0.70;0.50;;;4.90;99.90;;;;;;5051555;28;20192;-68
2021/12/18 00:54:37;;;;;;;0.90;0.70;;;5.00;99.90;;;;;;5034991;28;20270;-68
2021/12/18 00:57:04;;;;;;;1.53;1.43;;;5.10;99.90;;;;;;5034936;28;20457;-68
2021/12/18 00:59:32;;;;;;;3.90;1.33;;;5.20;99.90;;;;;;5035640;28;20492;-68
2021/12/18 01:01:58;;;;;;;0.73;0.70;;;5.20;99.90;;;;;;5026218;28;20535;-68
2021/12/18 01:04:23;;;;;;;1.13;1.03;;;5.20;99.90;;;;;;5030349;28;20495;-68
2021/12/18 01:06:49;;;;;;;0.87;0.87;;;5.20;99.90;;;;;;5029515;28;20179;-68
2021/12/18 01:09:18;;;;;;;1.17;1.13;;;5.30;99.90;;;;;;5029265;28;20172;-69
2021/12/18 01:11:45;;;;;;;1.20;1.10;;;5.30;99.90;;;;;;5034292;28;20187;-69
2021/12/18 01:22:41;;;;;;;1.27;1.17;;;5.50;99.90;;;;;;5014598;28;20407;-68
2021/12/18 01:24:51;;;;;;;0.97;0.90;;;5.60;99.90;;;;;;5014233;28;20407;-68
2021/12/18 01:27:17;;;;;;;0.77;0.70;;;5.60;99.90;;;;;;5031744;28;20164;-68
2021/12/18 01:29:42;;;;;;;0.63;0.50;;;5.70;99.90;;;;;;5034272;28;20410;-68
2021/12/18 01:32:09;;;;;;;3.33;1.93;;;5.70;99.90;;;;;;5025747;28;20435;-68
2021/12/18 01:34:35;;;;;;;1.73;1.07;;;5.70;99.90;;;;;;5023901;28;20266;-68
2021/12/18 01:37:01;;;;;;;2.30;1.50;;;5.80;99.90;;;;;;5019704;28;20423;-68
2021/12/18 01:39:27;;;;;;;0.80;0.60;;;5.80;99.90;;;;;;5032820;28;20488;-68
2021/12/18 01:42:21;;;;;;;0.70;0.67;;;5.90;99.90;;;;;;5031347;28;20188;-68
2021/12/18 01:44:57;;;;;;;1.20;1.00;;;5.90;99.90;;;;;;5014027;28;20190;-68
2021/12/18 01:52:39;;;;;;;1.10;1.00;;;5.90;99.90;;;;;;5033729;28;20977;-69
2021/12/18 01:55:06;;;;;;;0.60;0.50;;;5.90;99.90;;;;;;5048334;28;20429;-69
2021/12/18 01:57:32;;;;;;;1.83;1.03;;;6.00;99.90;;;;;;5033744;28;20599;-69
2021/12/18 01:59:58;;;;;;;0.80;0.60;;;6.00;99.90;;;;;;5033468;28;20450;-69
2021/12/18 02:02:24;;;;;;;1.63;1.53;;;6.00;99.90;;;;;;5031498;28;20434;-68
2021/12/18 02:04:50;;;;;;;0.97;0.93;;;6.10;99.90;;;;;;5024500;28;20422;-67
2021/12/18 02:07:17;;;;;;;1.33;1.23;;;6.10;99.90;;;;;;5020058;28;20449;-69
2021/12/18 02:12:09;;;;;;;0.70;0.60;;;6.20;99.90;;;;;;5033519;28;20458;-68
2021/12/18 02:20:26;;;;;;;2.20;2.10;;;6.30;99.90;;;;;;5014558;28;20473;-68
2021/12/18 02:22:55;;;;;;;1.60;1.50;;;6.20;99.90;;;;;;5012712;28;20482;-69
2021/12/18 02:25:23;;;;;;;0.80;0.80;;;6.30;99.90;;;;;;5013123;28;20482;-68
2021/12/18 02:27:49;;;;;;;0.70;0.50;;;6.30;99.90;;;;;;5028874;28;20476;-68
2021/12/18 02:30:16;;;;;;;7.40;1.77;;;6.40;99.90;;;;;;5017964;28;20441;-68
2021/12/18 02:32:42;;;;;;;0.70;0.50;;;6.40;99.90;;;;;;5031320;28;20441;-69
2021/12/18 02:35:10;;;;;;;4.10;1.07;;;6.50;99.90;;;;;;5031153;28;20418;-68
2021/12/18 02:37:40;;;;;;;1.33;1.23;;;6.50;99.90;;;;;;5032908;28;20657;-68
2021/12/18 02:42:42;;;;;;;0.70;0.50;;;6.60;99.90;;;;;;5032610;28;20437;-68
2021/12/18 02:45:07;;;;;;;0.70;0.50;;;6.60;99.90;;;;;;5032494;28;20504;-68
2021/12/18 02:47:33;;;;;;;0.90;0.90;;;6.60;99.90;;;;;;5032827;28;20155;-68
2021/12/18 02:49:59;;;;;;;0.70;0.70;;;6.60;99.90;;;;;;5038332;28;20426;-69
2021/12/18 02:52:30;;;;;;;1.43;1.37;;;6.60;99.90;;;;;;5013050;28;20196;-68
2021/12/18 02:54:56;;;;;;;1.43;1.33;;;6.70;99.90;;;;;;5017229;28;20210;-68
2021/12/18 02:57:21;;;;;;;1.43;0.97;;;6.60;99.90;;;;;;5025077;28;20454;-68
2021/12/18 02:59:49;;;;;;;2.97;1.20;;;6.60;99.90;;;;;;5012686;28;20447;-68
2021/12/18 03:02:17;;;;;;;2.17;1.93;;;6.60;99.90;;;;;;5012732;28;20243;-68
2021/12/18 03:04:46;;;;;;;0.70;0.50;;;6.70;99.90;;;;;;5014550;28;20490;-68
2021/12/18 03:07:15;;;;;;;1.77;1.67;;;6.70;99.90;;;;;;5016996;28;20419;-68
2021/12/18 03:21:37;;;;;;;0.97;0.97;;;6.80;99.90;;;;;;5022074;28;20533;-69
2021/12/18 03:23:39;;;;;;;2.23;1.27;;;6.80;99.90;;;;;;5012304;28;20450;-69
2021/12/18 03:26:05;;;;;;;0.70;0.60;;;6.90;99.90;;;;;;5012578;28;20816;-68
2021/12/18 03:28:31;;;;;;;2.70;2.50;;;6.90;99.90;;;;;;5012602;28;20413;-68
2021/12/18 03:30:57;;;;;;;2.50;1.70;;;6.90;99.90;;;;;;5032116;28;20171;-69
2021/12/18 03:33:25;;;;;;;2.20;1.57;;;6.90;99.90;;;;;;5032008;28;20480;-69
2021/12/18 03:35:51;;;;;;;0.97;0.97;;;6.90;99.90;;;;;;5031653;28;20414;-68
2021/12/18 03:38:17;;;;;;;1.23;1.13;;;6.90;99.90;;;;;;5031833;28;20853;-69
2021/12/18 03:40:42;;;;;;;0.60;0.50;;;6.90;99.90;;;;;;5030413;28;20283;-69
2021/12/18 03:43:08;;;;;;;0.63;0.50;;;6.90;99.90;;;;;;5032965;28;20203;-69
2021/12/18 03:45:34;;;;;;;1.53;1.47;;;6.90;99.90;;;;;;5033780;28;20172;-69
2021/12/18 03:47:59;;;;;;;1.23;1.23;;;6.90;99.90;;;;;;5032393;28;20163;-69
2021/12/18 03:50:25;;;;;;;0.67;0.57;;;6.90;99.90;;;;;;5031909;28;20233;-70
2021/12/18 03:52:50;;;;;;;2.30;1.17;;;6.90;99.90;;;;;;5015856;28;20276;-70
2021/12/18 03:55:17;;;;;;;1.00;0.80;;;6.80;99.90;;;;;;5047176;28;20187;-69
2021/12/18 03:57:42;;;;;;;1.00;0.80;;;6.90;99.90;;;;;;5032376;28;20206;-69
2021/12/18 04:00:11;;;;;;;1.47;1.37;;;6.90;99.90;;;;;;5032157;28;20490;-69
2021/12/18 04:02:36;;;;;;;0.67;0.57;;;6.90;99.90;;;;;;5046812;28;20231;-69
2021/12/18 04:05:03;;;;;;;1.13;1.03;;;6.90;99.90;;;;;;5047053;28;20402;-69
2021/12/18 04:07:28;;;;;;;1.77;1.53;;;6.80;99.90;;;;;;5031683;28;20164;-68
2021/12/18 04:09:54;;;;;;;1.77;1.20;;;6.80;99.90;;;;;;5030373;28;20430;-69
2021/12/18 04:12:19;;;;;;;1.47;1.37;;;6.80;99.90;;;;;;5031746;28;20283;-69
2021/12/18 04:14:45;;;;;;;0.70;0.53;;;6.80;99.90;;;;;;5032272;28;20269;-70
2021/12/18 04:17:11;;;;;;;1.10;0.80;;;6.70;99.90;;;;;;5031053;28;20180;-69
2021/12/18 04:19:37;;;;;;;1.87;1.67;;;6.80;99.90;;;;;;5014017;28;20193;-69
2021/12/18 04:22:03;;;;;;;1.27;1.10;;;6.80;99.90;;;;;;5012101;28;20481;-70
2021/12/18 04:24:28;;;;;;;1.87;1.77;;;6.90;99.90;;;;;;5012059;28;20320;-69
2021/12/18 04:26:54;;;;;;;2.27;1.43;;;6.90;99.90;;;;;;5013773;28;20430;-69
2021/12/18 04:29:20;;;;;;;1.10;1.10;;;7.00;99.90;;;;;;5029883;28;20545;-69
2021/12/18 04:31:45;;;;;;;0.73;0.73;;;7.00;99.90;;;;;;5028997;28;20449;-69
2021/12/18 04:34:11;;;;;;;1.17;1.10;;;7.10;99.90;;;;;;5011722;28;20171;-69
2021/12/18 04:36:36;;;;;;;1.10;0.97;;;7.00;99.90;;;;;;5011452;28;20208;-69
2021/12/18 04:39:03;;;;;;;1.00;1.00;;;7.00;99.90;;;;;;5018064;28;20254;-69
2021/12/18 04:41:47;;;;;;;2.23;2.03;;;7.10;99.90;;;;;;5029810;28;20541;-70
2021/12/18 04:44:13;;;;;;;3.63;0.90;;;7.00;99.90;;;;;;5011929;28;20465;-69
2021/12/18 04:46:38;;;;;;;0.80;0.80;;;7.00;99.90;;;;;;5027685;28;20412;-69
2021/12/18 04:49:04;;;;;;;1.30;1.20;;;7.00;99.90;;;;;;5026875;28;20168;-69
2021/12/18 04:51:30;;;;;;;1.67;1.57;;;7.10;99.90;;;;;;5032058;28;20176;-69
2021/12/18 04:53:55;;;;;;;7.77;1.30;;;7.10;99.90;;;;;;5032104;28;20852;-69
2021/12/18 04:56:21;;;;;;;6.93;2.53;;;7.00;99.90;;;;;;5035782;28;20187;-69
2021/12/18 04:58:46;;;;;;;1.30;1.30;;;7.00;99.90;;;;;;5035640;28;20191;-69
2021/12/18 05:01:12;;;;;;;1.80;1.67;;;7.10;99.90;;;;;;5034763;28;20199;-68
2021/12/18 05:03:40;;;;;;;0.67;0.50;;;7.10;99.90;;;;;;5034285;28;20229;-69
2021/12/18 05:06:05;;;;;;;1.83;1.73;;;7.00;99.90;;;;;;5034427;28;20164;-69
2021/12/18 05:08:31;;;;;;;1.40;1.30;;;7.00;99.90;;;;;;5032691;28;20423;-69
2021/12/18 05:10:56;;;;;;;0.80;0.80;;;6.90;99.90;;;;;;5034237;28;20175;-69
2021/12/18 05:13:22;;;;;;;11.43;2.80;;;6.90;99.90;;;;;;5034224;28;20206;-69
2021/12/18 05:15:47;;;;;;;0.70;0.67;;;7.00;99.90;;;;;;5025060;28;20238;-69
2021/12/18 05:18:13;;;;;;;1.23;1.13;;;6.90;99.90;;;;;;5016837;28;20187;-69
2021/12/18 05:20:39;;;;;;;1.00;0.80;;;6.90;99.90;;;;;;5017821;28;20204;-69
2021/12/18 05:23:04;;;;;;;0.70;0.60;;;6.90;99.90;;;;;;5033685;28;20614;-69
2021/12/18 05:25:30;;;;;;;1.63;0.90;;;6.80;99.90;;;;;;5033715;28;20199;-69
2021/12/18 05:27:55;;;;;;;1.93;1.60;;;6.70;99.90;;;;;;5014832;28;20521;-69
2021/12/18 05:30:21;;;;;;;0.70;0.70;;;6.50;99.90;;;;;;5014484;28;20218;-69
2021/12/18 05:32:47;;;;;;;1.30;1.20;;;6.50;99.90;;;;;;5014289;28;20231;-69
2021/12/18 05:35:15;;;;;;;0.97;0.97;;;6.60;99.90;;;;;;5029374;28;20701;-69
2021/12/18 05:40:14;;;;;;;0.70;0.50;;;6.50;99.90;;;;;;5015401;28;20983;-69
2021/12/18 05:42:40;;;;;;;0.70;0.50;;;6.60;99.90;;;;;;5016286;28;20426;-69
2021/12/18 05:45:07;;;;;;;2.10;1.90;;;6.50;99.90;;;;;;5016111;28;20403;-68
2021/12/18 05:47:34;;;;;;;0.70;0.60;;;6.40;99.90;;;;;;5031786;28;20184;-68
2021/12/18 05:50:00;;;;;;;0.70;0.60;;;6.40;99.90;;;;;;5014943;28;20411;-68
2021/12/18 05:52:26;;;;;;;2.90;2.30;;;6.40;99.90;;;;;;5015470;28;20839;-69
2021/12/18 05:54:51;;;;;;;0.70;0.60;;;6.20;99.90;;;;;;5025217;28;20533;-68
2021/12/18 05:57:17;;;;;;;1.03;0.93;;;6.10;99.90;;;;;;5033273;28;20454;-69
2021/12/18 05:59:44;;;;;;;4.13;3.73;;;6.10;99.90;;;;;;5033832;28;20669;-69
2021/12/18 06:02:09;;;;;;;2.70;1.70;;;6.30;99.90;;;;;;5015031;28;20647;-69
2021/12/18 06:04:35;;;;;;;1.30;1.20;;;6.30;99.90;;;;;;5023415;28;20493;-69
2021/12/18 06:07:05;;;;;;;2.87;1.40;;;6.30;99.90;;;;;;5033361;28;20398;-69
2021/12/18 06:09:35;;;;;;;0.80;0.80;;;6.40;99.90;;;;;;5025838;28;20238;-69
2021/12/18 06:12:02;;;;;;;3.90;1.03;;;6.30;99.90;;;;;;5013704;28;20475;-69
2021/12/18 06:14:28;;;;;;;0.70;0.50;;;6.30;99.90;;;;;;5019727;28;20422;-69
2021/12/18 06:16:54;;;;;;;4.20;2.63;;;6.30;99.90;;;;;;5032816;28;20479;-69
2021/12/18 06:19:20;;;;;;;0.70;0.50;;;6.20;99.90;;;;;;5033234;28;20557;-69
2021/12/18 06:21:46;;;;;;;0.70;0.67;;;6.30;99.90;;;;;;5023917;28;20431;-69
2021/12/18 06:24:12;;;;;;;0.70;0.50;;;6.40;99.90;;;;;;5013566;28;20482;-69
2021/12/18 06:26:37;;;;;;;2.63;2.43;;;6.50;99.90;;;;;;5036217;28;20528;-69
2021/12/18 06:29:03;;;;;;;0.70;0.67;;;6.50;99.90;;;;;;5033128;28;20683;-69
2021/12/18 06:31:29;;;;;;;3.30;3.10;;;6.70;99.90;;;;;;5032695;28;20649;-69
2021/12/18 06:33:54;;;;;;;2.53;2.33;;;6.70;99.90;;;;;;5031404;28;20176;-69
2021/12/18 06:36:20;;;;;;;0.97;0.87;;;6.70;99.90;;;;;;5032753;28;20645;-69
2021/12/18 06:38:45;;;;;;;3.27;2.70;;;6.70;99.90;;;;;;5033014;28;20591;-69
2021/12/18 06:41:11;;;;;;;9.50;2.63;;;6.70;99.90;;;;;;5022872;28;20231;-69
2021/12/18 06:43:37;;;;;;;1.60;1.37;;;6.70;99.90;;;;;;5013280;28;20592;-69
2021/12/18 06:46:02;;;;;;;0.73;0.73;;;6.60;99.90;;;;;;5013150;28;20169;-69
2021/12/18 06:48:28;;;;;;;1.73;1.07;;;6.70;99.90;;;;;;5028196;28;20613;-69
2021/12/18 06:50:54;;;;;;;0.70;0.63;;;6.60;99.90;;;;;;5028374;28;20172;-69
2021/12/18 06:53:19;;;;;;;3.60;1.90;;;6.60;99.90;;;;;;5028135;28;20188;-69
2021/12/18 06:55:46;;;;;;;1.17;0.77;;;6.60;99.90;;;;;;5012510;28;20617;-69
2021/12/18 06:58:12;;;;;;;3.90;3.60;;;6.50;99.90;;;;;;5027096;28;20183;-68
2021/12/18 07:00:37;;;;;;;1.17;1.17;;;6.60;99.90;;;;;;5032569;28;20631;-69
2021/12/18 07:03:04;;;;;;;3.20;1.50;;;6.50;99.90;;;;;;5031469;28;20222;-69
2021/12/18 07:05:29;;;;;;;0.97;0.73;;;6.50;99.90;;;;;;5032167;28;20164;-69
2021/12/18 07:07:56;;;;;;;0.70;0.60;;;6.30;99.90;;;;;;5032513;28;20899;-69
2021/12/18 07:10:22;;;;;;;0.70;0.70;;;6.40;99.90;;;;;;5030212;28;20187;-69
2021/12/18 07:12:47;;;;;;;1.03;0.93;;;6.50;99.90;;;;;;5032144;28;20414;-69
2021/12/18 07:15:14;;;;;;;2.20;1.67;;;6.50;99.90;;;;;;5032268;28;20249;-69
2021/12/18 07:17:39;;;;;;;10.50;2.80;;;6.60;99.90;;;;;;5014064;28;20172;-69
2021/12/18 07:20:06;;;;;;;0.90;0.90;;;6.50;99.90;;;;;;5012466;28;20477;-69
2021/12/18 07:22:32;;;;;;;1.00;0.70;;;6.50;99.90;;;;;;5015383;28;20192;-69
2021/12/18 07:24:58;;;;;;;0.67;0.60;;;6.50;99.90;;;;;;5014619;28;20442;-69
2021/12/18 07:27:24;;;;;;;0.60;0.60;;;6.50;99.90;;;;;;5032170;28;20744;-69
2021/12/18 07:29:49;;;;;;;1.30;1.17;;;6.30;99.90;;;;;;5032262;28;20168;-69
2021/12/18 07:32:15;;;;;;;3.60;3.40;;;6.20;99.90;;;;;;5030226;28;20206;-67
2021/12/18 07:34:41;;;;;;;1.20;1.10;;;6.30;99.90;;;;;;5031839;28;20542;-68
2021/12/18 07:37:06;;;;;;;1.53;1.43;;;6.40;99.90;;;;;;5031856;28;20210;-68
2021/12/18 07:39:32;;;;;;;0.90;0.87;;;6.30;99.90;;;;;;5031982;28;20203;-68
2021/12/18 07:41:57;;;;;;;0.60;0.50;;;6.10;99.90;;;;;;5030227;28;20195;-68
2021/12/18 07:44:23;;;;;;;1.17;1.07;;;6.10;99.90;;;;;;5031932;28;20652;-68
2021/12/18 07:46:49;;;;;;;1.13;1.00;;;6.00;99.90;;;;;;5030477;28;20567;-68
2021/12/18 07:49:14;;;;;;;6.93;1.90;;;6.00;99.90;;;;;;5031899;28;20175;-68
2021/12/18 07:51:40;;;;;;;0.70;0.70;;;5.90;99.90;;;;;;5030975;28;20433;-68
2021/12/18 07:54:06;;;;;;;0.70;0.50;;;5.90;99.90;;;;;;5031987;28;20179;-68
2021/12/18 07:56:33;;;;;;;3.90;1.73;;;5.80;99.90;;;;;;5031049;28;20194;-68
2021/12/18 07:58:59;;;;;;;6.83;2.83;;;5.80;99.90;;;;;;5024014;28;20945;-67
2021/12/18 08:01:25;;;;;;;1.80;1.70;;;5.80;99.90;;;;;;5011958;28;20458;-67
2021/12/18 08:03:50;;;;;;;1.23;1.17;;;5.80;99.90;;;;;;5012043;28;20166;-67
2021/12/18 08:06:16;;;;;;;1.63;1.57;;;5.80;99.90;;;;;;5011869;28;20684;-67
2021/12/18 08:08:42;;;;;;;2.50;1.30;;;5.90;99.90;;;;;;5023495;28;20198;-68
2021/12/18 08:11:08;;;;;;;3.13;2.93;;;6.00;99.90;;;;;;5031822;28;20179;-68
2021/12/18 08:13:33;;;;;;;2.10;1.60;;;6.10;99.90;;;;;;5031570;28;20676;-68
2021/12/18 08:15:59;;;;;;;1.13;1.03;;;6.20;99.90;;;;;;5031365;28;20642;-68
2021/12/18 08:18:25;;;;;;;1.43;0.77;;;6.00;99.90;;;;;;5031584;28;20569;-68
2021/12/18 08:20:51;;;;;;;0.60;0.50;;;6.00;99.90;;;;;;5031436;28;20214;-68
2021/12/18 08:23:16;;;;;;;1.37;1.30;;;6.00;99.90;;;;;;5017926;28;20271;-67
2021/12/18 08:25:42;;;;;;;8.87;1.73;;;5.90;99.90;;;;;;5026938;28;20977;-67
2021/12/18 08:28:08;;;;;;;0.60;0.50;;;6.00;99.90;;;;;;5035337;28;20168;-67
2021/12/18 08:30:38;;;;;;;1.23;1.07;;;6.10;99.90;;;;;;5035025;28;20176;-68
2021/12/18 08:33:03;;;;;;;2.40;2.20;;;6.10;99.90;;;;;;5035304;28;20198;-68
2021/12/18 08:35:30;;;;;;;0.90;0.70;;;6.10;99.90;;;;;;5023635;28;20422;-68
2021/12/18 08:37:57;;;;;;;1.27;1.17;;;6.10;99.90;;;;;;5035297;28;20225;-68
2021/12/18 08:40:24;;;;;;;1.30;1.30;;;6.20;99.90;;;;;;5035171;28;20438;-68
2021/12/18 08:42:51;;;;;;;1.43;1.33;;;6.20;99.90;;;;;;5015311;28;20940;-68
2021/12/18 08:45:16;;;;;;;1.03;0.93;;;6.20;99.90;;;;;;5016673;28;20475;-68
2021/12/18 08:47:43;;;;;;;1.27;1.17;;;6.20;99.90;;;;;;5035066;28;20497;-68
2021/12/18 08:50:11;;;;;;;1.30;1.20;;;6.20;99.90;;;;;;5034305;28;20524;-68
2021/12/18 08:52:37;;;;;;;1.30;1.20;;;6.10;99.90;;;;;;5049902;28;20524;-68
2021/12/18 08:55:03;;;;;;;5.07;1.00;;;6.20;99.90;;;;;;5034486;28;20422;-68
2021/12/18 08:57:29;;;;;;;2.03;1.90;;;6.20;99.90;;;;;;5033559;28;20414;-68
2021/12/18 08:59:55;;;;;;;0.70;0.70;;;6.30;99.90;;;;;;5034387;28;20792;-68
2021/12/18 09:02:21;;;;;;;1.63;1.17;;;6.20;99.90;;;;;;5033649;28;20422;-68
2021/12/18 09:04:48;;;;;;;1.97;1.73;;;6.30;99.90;;;;;;5028884;28;20179;-68
2021/12/18 09:07:14;;;;;;;1.60;1.50;;;6.40;99.90;;;;;;5014775;28;20664;-68
2021/12/18 09:09:39;;;;;;;0.73;0.73;;;6.40;99.90;;;;;;5023614;28;20422;-68
2021/12/18 09:12:06;;;;;;;1.93;1.80;;;6.50;99.90;;;;;;5034458;28;20488;-68
2021/12/18 09:14:32;;;;;;;2.60;1.73;;;6.40;99.90;;;;;;5020255;28;20176;-68
2021/12/18 09:16:57;;;;;;;9.00;1.33;;;6.60;99.90;;;;;;5032519;28;20479;-68
2021/12/18 09:19:23;;;;;;;2.23;0.90;;;6.70;99.90;;;;;;5033008;28;20171;-68
2021/12/18 09:21:48;;;;;;;1.20;1.20;;;6.60;99.90;;;;;;5025478;28;20299;-68
2021/12/18 09:24:14;;;;;;;1.60;1.37;;;6.70;99.90;;;;;;5017916;28;20683;-68
2021/12/18 09:26:40;;;;;;;0.63;0.60;;;6.60;99.90;;;;;;5020496;28;20172;-68
2021/12/18 09:29:05;;;;;;;0.90;0.90;;;6.70;99.90;;;;;;5014549;28;20190;-68
2021/12/18 09:31:31;;;;;;;1.57;1.47;;;6.70;99.90;;;;;;5013442;28;20176;-68
2021/12/18 09:33:56;;;;;;;4.10;1.20;;;6.60;99.90;;;;;;5014342;28;20161;-68
2021/12/18 09:36:23;;;;;;;0.90;0.87;;;6.60;99.90;;;;;;5024048;28;20179;-68
2021/12/18 09:38:48;;;;;;;1.07;0.90;;;6.70;99.90;;;;;;5033561;28;20199;-68
2021/12/18 09:41:14;;;;;;;1.10;1.00;;;6.70;99.90;;;;;;5034023;28;20947;-68
2021/12/18 09:43:40;;;;;;;1.47;1.37;;;6.70;99.90;;;;;;5033992;28;20175;-68
2021/12/18 09:46:08;;;;;;;0.70;0.70;;;6.70;99.90;;;;;;5023059;28;20168;-68
2021/12/18 09:48:36;;;;;;;0.80;0.80;;;6.70;99.90;;;;;;5031362;28;20187;-68
2021/12/18 09:51:09;;;;;;;4.30;1.47;;;6.70;99.90;;;;;;5032263;28;20444;-68
2021/12/18 09:53:35;;;;;;;2.10;2.00;;;6.70;99.90;;;;;;5033808;28;20426;-68
2021/12/18 09:56:02;;;;;;;1.10;1.10;;;6.70;99.90;;;;;;5032501;28;20456;-68
2021/12/18 09:58:28;;;;;;;1.80;1.70;;;6.60;99.90;;;;;;5020304;28;20437;-68
2021/12/18 10:00:53;;;;;;;2.33;2.13;;;6.80;99.90;;;;;;5014609;28;20459;-68
2021/12/18 10:03:19;;;;;;;2.07;0.80;;;6.90;99.90;;;;;;5026725;28;20222;-68
2021/12/18 10:05:44;;;;;;;0.80;0.80;;;6.80;99.90;;;;;;5032717;28;20168;-68
2021/12/18 10:08:18;;;;;;;0.67;0.50;;;6.80;99.90;;;;;;5033533;28;20191;-68
2021/12/18 10:11:07;;;;;;;1.20;1.07;;;6.90;99.90;;;;;;5027968;28;20222;-68
2021/12/18 10:13:56;;;;;;;1.43;1.33;;;6.80;99.90;;;;;;5013571;28;20477;-68
2021/12/18 10:16:23;;;;;;;1.23;1.10;;;6.90;99.90;;;;;;5013306;28;20431;-68
2021/12/18 10:18:50;;;;;;;0.70;0.70;;;7.00;99.90;;;;;;5014682;28;20395;-68
2021/12/18 10:21:19;;;;;;;1.57;1.47;;;6.90;99.90;;;;;;5033282;28;21032;-68
2021/12/18 10:23:47;;;;;;;0.70;0.70;;;6.80;99.90;;;;;;5047845;28;20410;-68
2021/12/18 10:26:37;;;;;;;0.97;0.97;;;6.90;99.90;;;;;;5037306;28;20425;-68
2021/12/18 10:29:06;;;;;;;0.90;0.90;;;6.90;99.90;;;;;;5033417;28;20422;-68
2021/12/18 10:31:44;;;;;;;0.90;0.90;;;6.90;99.90;;;;;;5031531;28;20999;-68
2021/12/18 10:34:22;;;;;;;0.73;0.70;;;6.80;99.90;;;;;;5048394;28;20402;-68
2021/12/18 10:37:18;;;;;;;3.07;2.67;;;7.00;99.90;;;;;;5032814;28;20406;-68
2021/12/18 10:39:45;;;;;;;0.83;0.80;;;6.90;99.90;;;;;;5032978;28;20453;-68
2021/12/18 10:42:20;;;;;;;9.37;1.17;;;6.90;99.90;;;;;;5016012;28;20444;-68
2021/12/18 10:45:05;;;;;;;1.53;1.23;;;7.10;99.90;;;;;;5012881;28;20425;-68
2021/12/18 10:48:01;;;;;;;1.43;0.70;;;7.10;99.90;;;;;;5014136;28;20416;-68
2021/12/18 10:50:45;;;;;;;2.30;1.53;;;7.10;99.90;;;;;;5013216;28;20411;-68
2021/12/18 10:53:14;;;;;;;16.30;1.53;;;7.20;99.90;;;;;;5022356;28;20529;-68
2021/12/18 10:55:48;;;;;;;0.60;0.60;;;7.00;99.90;;;;;;5032328;28;20774;-68
2021/12/18 10:58:21;;;;;;;1.10;1.10;;;7.20;99.90;;;;;;5031467;28;20420;-68
2021/12/18 11:00:58;;;;;;;0.90;0.90;;;7.20;99.90;;;;;;5031392;28;20493;-68
2021/12/18 11:03:34;;;;;;;1.10;0.97;;;7.20;99.90;;;;;;5031542;28;20973;-68
2021/12/18 11:06:02;;;;;;;1.17;0.97;;;7.40;99.90;;;;;;5032327;28;20402;-68
2021/12/18 11:08:27;;;;;;;2.57;2.30;;;7.30;99.90;;;;;;5032118;28;20835;-68
2021/12/18 11:13:57;;;;;;;2.03;1.83;;;7.60;99.90;;;;;;5012746;28;20178;-68
2021/12/18 11:16:25;;;;;;;1.17;1.10;;;7.50;99.90;;;;;;5012481;28;20431;-68
2021/12/18 11:18:53;;;;;;;2.00;1.43;;;7.50;99.90;;;;;;5012598;28;20247;-68
2021/12/18 11:21:19;;;;;;;1.47;1.37;;;7.70;99.90;;;;;;5014026;28;20459;-68
2021/12/18 11:23:45;;;;;;;1.33;1.20;;;7.80;99.90;;;;;;5022205;28;20422;-68
2021/12/18 11:26:13;;;;;;;0.93;0.90;;;7.80;99.90;;;;;;5030638;28;20457;-68
2021/12/18 11:28:44;;;;;;;4.93;0.80;;;7.80;99.90;;;;;;5032208;28;20250;-68
2021/12/18 11:31:12;;;;;;;0.93;0.93;;;7.90;99.90;;;;;;5031628;28;20465;-68
2021/12/18 11:33:39;;;;;;;0.67;0.50;;;8.00;99.90;;;;;;5032119;28;20430;-68
2021/12/18 11:36:05;;;;;;;2.50;1.17;;;7.90;99.90;;;;;;5018415;28;20912;-68
2021/12/18 11:38:33;;;;;;;3.50;1.40;;;8.00;99.90;;;;;;5012361;28;20403;-68
2021/12/18 11:40:59;;;;;;;0.70;0.60;;;8.00;99.90;;;;;;5012205;28;20462;-68
2021/12/18 11:43:41;;;;;;;0.80;0.80;;;7.90;99.90;;;;;;5019472;28;20438;-68
2021/12/18 11:46:34;;;;;;;1.03;1.03;;;7.80;99.90;;;;;;5031469;28;20420;-68
2021/12/18 11:49:06;;;;;;;0.60;0.50;;;7.60;99.90;;;;;;5025503;28;20504;-68
2021/12/18 11:51:32;;;;;;;1.07;1.00;;;7.60;99.90;;;;;;5029750;28;20417;-68
2021/12/18 11:53:59;;;;;;;2.30;1.10;;;7.80;99.90;;;;;;5012143;28;20481;-68
2021/12/18 11:56:25;;;;;;;0.80;0.70;;;7.80;99.90;;;;;;5012828;28;20431;-68
2021/12/18 11:58:52;;;;;;;2.87;2.77;;;7.80;99.90;;;;;;5016090;28;20427;-68
2021/12/18 12:01:25;;;;;;;0.70;0.60;;;7.80;99.90;;;;;;5014691;28;20589;-68
2021/12/18 12:03:50;;;;;;;3.13;2.93;;;7.70;99.90;;;;;;5016092;28;20952;-68
2021/12/18 12:06:21;;;;;;;0.70;0.70;;;7.80;99.90;;;;;;5014740;28;20502;-68
2021/12/18 12:08:51;;;;;;;1.33;1.20;;;7.80;99.90;;;;;;5018332;28;20176;-68
2021/12/18 12:11:27;;;;;;;0.60;0.50;;;7.70;99.90;;;;;;5023642;28;20870;-68
2021/12/18 12:14:13;;;;;;;2.63;1.03;;;7.70;99.90;;;;;;5036679;28;20417;-68
2021/12/18 12:16:47;;;;;;;1.27;1.20;;;7.70;99.90;;;;;;5035404;28;20887;-68
2021/12/18 12:19:37;;;;;;;0.60;0.60;;;7.70;99.90;;;;;;5032780;28;20422;-68
2021/12/18 12:22:05;;;;;;;1.00;0.90;;;7.70;99.90;;;;;;5035726;28;20425;-68
2021/12/18 12:24:51;;;;;;;1.67;1.57;;;7.80;99.90;;;;;;5035477;28;20429;-67
2021/12/18 12:27:31;;;;;;;0.70;0.70;;;7.80;99.90;;;;;;5021754;28;20485;-67
2021/12/18 12:29:58;;;;;;;0.70;0.67;;;7.80;99.90;;;;;;5015791;28;20483;-68
2021/12/18 12:32:25;;;;;;;1.23;1.13;;;7.90;99.90;;;;;;5020483;28;20437;-68
2021/12/18 12:35:08;;;;;;;0.70;0.60;;;8.00;99.90;;;;;;5035429;28;20478;-68
2021/12/18 12:37:46;;;;;;;1.47;1.37;;;7.90;99.90;;;;;;5030795;28;20419;-68
2021/12/18 12:40:20;;;;;;;1.93;1.13;;;8.00;99.90;;;;;;5025601;28;20458;-68
2021/12/18 12:43:11;;;;;;;5.37;1.60;;;8.00;99.90;;;;;;5030236;28;20775;-68
2021/12/18 12:45:39;;;;;;;0.60;0.50;;;8.00;99.90;;;;;;5031900;28;20477;-68
2021/12/18 12:48:04;;;;;;;1.23;0.90;;;8.00;99.90;;;;;;5035492;28;20409;-68
2021/12/18 12:50:32;;;;;;;1.03;0.93;;;8.00;99.90;;;;;;5035825;28;20406;-68
2021/12/18 12:53:00;;;;;;;0.60;0.60;;;8.00;99.90;;;;;;5035236;28;20188;-68
2021/12/18 12:55:28;;;;;;;0.63;0.60;;;8.10;99.90;;;;;;5033676;28;20433;-68
2021/12/18 12:58:01;;;;;;;0.70;0.50;;;8.20;99.90;;;;;;5024690;28;20834;-68
2021/12/18 13:00:27;;;;;;;1.43;1.33;;;8.30;99.90;;;;;;5035054;28;20457;-68
2021/12/18 13:03:21;;;;;;;0.60;0.50;;;8.20;99.90;;;;;;5034689;28;20418;-68
2021/12/18 13:05:51;;;;;;;1.00;0.90;;;8.40;99.90;;;;;;5013560;28;20191;-68
2021/12/18 13:08:17;;;;;;;2.20;0.80;;;8.30;99.90;;;;;;5014297;28;20801;-68
2021/12/18 13:10:43;;;;;;;0.70;0.60;;;8.30;99.90;;;;;;5014894;28;20498;-67
2021/12/18 13:13:15;;;;;;;0.87;0.80;;;8.30;99.90;;;;;;5014735;28;20434;-67
2021/12/18 13:15:54;;;;;;;1.43;1.23;;;8.30;99.90;;;;;;5029694;28;20427;-69
2021/12/18 13:18:27;;;;;;;2.50;2.40;;;8.30;99.90;;;;;;5022756;28;20428;-67
2021/12/18 13:21:18;;;;;;;0.70;0.60;;;8.30;99.90;;;;;;5034184;28;20453;-67
2021/12/18 13:23:59;;;;;;;0.70;0.50;;;8.20;99.90;;;;;;5033934;28;20422;-67
2021/12/18 13:26:34;;;;;;;1.13;1.03;;;8.30;99.90;;;;;;5014352;28;20391;-67
2021/12/18 13:29:02;;;;;;;1.30;1.20;;;8.30;99.90;;;;;;5016834;28;20457;-67
2021/12/18 13:31:32;;;;;;;0.70;0.70;;;8.20;99.90;;;;;;5017315;28;20920;-68
2021/12/18 13:34:10;;;;;;;0.80;0.80;;;8.20;99.90;;;;;;5034302;28;20501;-67
2021/12/18 13:36:47;;;;;;;0.80;0.80;;;8.10;99.90;;;;;;5014791;28;20430;-67
2021/12/18 13:39:20;;;;;;;2.47;2.30;;;8.20;99.90;;;;;;5016772;28;20407;-67
2021/12/18 13:41:59;;;;;;;0.80;0.80;;;8.20;99.90;;;;;;5016692;28;20510;-67
2021/12/18 13:44:43;;;;;;;1.80;1.70;;;8.00;99.90;;;;;;5013314;28;20454;-67
2021/12/18 13:47:24;;;;;;;1.93;1.53;;;8.10;99.90;;;;;;5014468;28;20498;-68